Wellesley Island, New York
Current Conditions -  °F | °C
As of 5:56 PM on Thursday 18 Dec 2014 (Local Time) from KART Reporting Station
Overcast Overcast  
Wind Chill: 23°   Ceiling: 3700
Heat Index: 31°   Visibility: 10mi
Dew Point: 22°   Wind: 8mph
Humidity: 69%   Direction: 310°NW
Pressure: 30.02"   Gusts: NA
Location:  44.29°N, 76.01°W
Report Text: KART 182256Z AUTO 31007KT 10SM OVC037 M01/M06 A3002 RMK AO2 SLP170 T10061056
Loading
Personal Weather Stations






























Interactive Weather Map New forecast layout! Learn more

10-Day Weather Forecast

Advertisements
Track Severe Weather on mobile